createdAt,value
2023-04-18T00:01:51.799Z,28.30
2023-04-18T00:04:19.147Z,28.80
2023-04-18T00:06:49.068Z,29.90
2023-04-18T00:09:15.844Z,29.70
2023-04-18T00:11:42.815Z,29.50
2023-04-18T00:14:09.866Z,29.60
2023-04-18T00:16:38.137Z,29.80
2023-04-18T00:19:06.011Z,29.10
2023-04-18T00:21:32.854Z,30.40
2023-04-18T00:23:59.592Z,29.70
2023-04-18T00:26:27.447Z,29.50
2023-04-18T00:28:54.157Z,31.30
2023-04-18T00:31:20.972Z,31.40
2023-04-18T00:33:47.856Z,31.10
2023-04-18T00:36:14.547Z,31.50
2023-04-18T00:38:41.312Z,30.70
2023-04-18T00:41:08.071Z,31.60
2023-04-18T00:43:34.791Z,33.10
2023-04-18T00:46:01.562Z,34.00
2023-04-18T00:48:29.913Z,31.40
2023-04-18T00:50:56.782Z,31.20
2023-04-18T00:53:23.632Z,33.80
2023-04-18T00:55:50.939Z,32.80
2023-04-18T00:58:17.827Z,32.00
2023-04-18T01:00:45.175Z,32.60
2023-04-18T01:03:14.001Z,34.00
2023-04-18T01:05:41.122Z,33.30
2023-04-18T01:08:07.905Z,32.00
2023-04-18T01:10:35.400Z,33.50
2023-04-18T01:13:18.039Z,33.00
2023-04-18T01:15:48.573Z,33.50
2023-04-18T01:18:17.261Z,32.70
2023-04-18T01:20:50.502Z,31.60
2023-04-18T01:23:19.013Z,34.60
2023-04-18T01:25:48.661Z,33.80
2023-04-18T01:28:16.083Z,32.60
2023-04-18T01:30:43.034Z,33.60
2023-04-18T01:33:09.834Z,34.50
2023-04-18T01:35:36.672Z,33.90
2023-04-18T01:38:03.432Z,32.80
2023-04-18T01:40:30.278Z,34.00
2023-04-18T01:42:56.962Z,35.10
2023-04-18T01:45:23.742Z,34.10
2023-04-18T01:47:50.482Z,34.10
2023-04-18T01:50:17.279Z,34.90
2023-04-18T01:52:44.122Z,33.60
2023-04-18T01:55:11.030Z,36.20
2023-04-18T01:57:37.890Z,35.00
2023-04-18T02:00:06.113Z,38.50
2023-04-18T02:02:33.460Z,34.30
2023-04-18T02:05:00.730Z,38.00
2023-04-18T02:07:27.564Z,36.00
2023-04-18T02:09:54.435Z,36.20
2023-04-18T02:12:21.284Z,37.20
2023-04-18T02:14:53.965Z,36.70
2023-04-18T02:17:22.830Z,35.70
2023-04-18T02:19:51.027Z,35.70
2023-04-18T02:22:18.295Z,37.40
2023-04-18T02:24:45.350Z,37.40
2023-04-18T02:27:12.335Z,36.70
2023-04-18T02:29:39.049Z,36.00
2023-04-18T02:32:06.237Z,37.10
2023-04-18T02:34:33.136Z,37.30
2023-04-18T02:36:59.814Z,35.90
2023-04-18T02:39:26.527Z,37.80
2023-04-18T02:41:53.204Z,37.00
2023-04-18T02:44:19.963Z,37.30
2023-04-18T02:46:46.647Z,38.10
2023-04-18T02:49:13.813Z,38.10
2023-04-18T02:51:40.633Z,36.10
2023-04-18T02:54:07.321Z,37.70
2023-04-18T02:56:39.202Z,36.30
2023-04-18T02:59:06.601Z,36.30
2023-04-18T03:01:33.704Z,37.50
2023-04-18T03:04:00.475Z,36.50
2023-04-18T03:06:27.149Z,37.40
2023-04-18T03:08:55.134Z,37.30
2023-04-18T03:11:22.138Z,37.20
2023-04-18T03:13:48.933Z,36.50
2023-04-18T03:16:16.235Z,39.00
2023-04-18T03:18:42.998Z,35.30
2023-04-18T03:21:09.670Z,37.50
2023-04-18T03:23:36.561Z,36.30
2023-04-18T03:26:05.906Z,36.10
2023-04-18T03:28:32.967Z,33.20
2023-04-18T03:30:59.931Z,36.20
2023-04-18T03:33:28.271Z,36.30
2023-04-18T03:35:55.106Z,36.30
2023-04-18T03:38:22.160Z,37.00
2023-04-18T03:40:48.844Z,36.10
2023-04-18T03:43:15.549Z,36.20
2023-04-18T03:45:43.632Z,37.20
2023-04-18T03:48:10.658Z,35.10
2023-04-18T03:50:37.495Z,37.10
2023-04-18T03:53:04.163Z,37.40
2023-04-18T03:55:31.284Z,37.00
2023-04-18T03:57:58.532Z,33.60
2023-04-18T04:00:26.286Z,37.90
2023-04-18T04:02:53.151Z,35.40
2023-04-18T04:05:20.065Z,36.60
2023-04-18T04:07:46.968Z,37.70
2023-04-18T04:10:13.760Z,35.50
2023-04-18T04:12:40.473Z,36.60
2023-04-18T04:15:08.097Z,37.50
2023-04-18T04:17:34.804Z,37.40
2023-04-18T04:20:01.956Z,37.60
2023-04-18T04:22:28.647Z,38.80
2023-04-18T04:24:57.096Z,37.70
2023-04-18T04:27:24.428Z,37.10
2023-04-18T04:29:51.691Z,36.90
2023-04-18T04:32:19.655Z,38.20
2023-04-18T04:34:46.404Z,38.70
2023-04-18T04:37:13.530Z,38.30
2023-04-18T04:39:40.496Z,37.50
2023-04-18T04:42:07.208Z,40.50
2023-04-18T04:44:35.072Z,38.80
2023-04-18T04:47:01.757Z,37.40
2023-04-18T04:49:28.476Z,37.60
2023-04-18T04:51:55.433Z,38.90
2023-04-18T04:54:22.443Z,38.80
2023-04-18T04:56:49.146Z,37.50
2023-04-18T04:59:16.255Z,38.90
2023-04-18T05:01:43.509Z,38.30
2023-04-18T05:04:10.418Z,37.70
2023-04-18T05:06:40.066Z,37.10
2023-04-18T05:09:07.041Z,40.70
2023-04-18T05:11:33.827Z,39.70
2023-04-18T05:14:00.501Z,38.00
2023-04-18T05:16:27.294Z,38.20
2023-04-18T05:18:53.988Z,39.90
2023-04-18T05:21:20.725Z,39.50
2023-04-18T05:23:47.611Z,41.60
2023-04-18T05:26:14.368Z,39.10
2023-04-18T05:28:41.088Z,40.00
2023-04-18T05:31:07.858Z,40.40
2023-04-18T05:33:34.638Z,39.50
2023-04-18T05:36:01.519Z,39.80
2023-04-18T05:38:28.234Z,39.10
2023-04-18T05:40:55.340Z,38.50
2023-04-18T05:43:22.780Z,40.80
2023-04-18T05:45:51.700Z,39.80
2023-04-18T05:48:18.802Z,41.10
2023-04-18T05:50:45.533Z,38.40
2023-04-18T05:53:12.392Z,37.10
2023-04-18T05:55:42.516Z,39.50
2023-04-18T05:58:09.244Z,41.30
2023-04-18T06:00:36.200Z,39.10
2023-04-18T06:03:03.259Z,37.00
2023-04-18T06:05:30.532Z,39.00
2023-04-18T06:07:57.860Z,39.10
2023-04-18T06:10:24.914Z,38.30
2023-04-18T06:12:51.558Z,40.00
2023-04-18T06:15:18.591Z,40.00
2023-04-18T06:17:45.453Z,38.30
2023-04-18T06:20:12.572Z,38.30
2023-04-18T06:22:39.309Z,37.80
2023-04-18T06:25:09.213Z,39.10
2023-04-18T06:27:37.639Z,35.80
2023-04-18T06:30:07.628Z,37.70
2023-04-18T06:32:34.470Z,38.80
2023-04-18T06:35:01.626Z,37.40
2023-04-18T06:37:28.914Z,35.90
2023-04-18T06:39:55.770Z,36.70
2023-04-18T06:42:23.001Z,36.10
2023-04-18T06:44:49.993Z,37.00
2023-04-18T06:47:16.877Z,34.70
2023-04-18T06:49:43.622Z,36.40
2023-04-18T06:52:10.415Z,33.50
2023-04-18T06:54:37.168Z,35.60
2023-04-18T06:57:04.000Z,33.60
2023-04-18T06:59:30.838Z,34.80
2023-04-18T07:01:57.724Z,34.30
2023-04-18T07:04:24.878Z,34.30
2023-04-18T07:06:52.076Z,35.60
2023-04-18T07:09:19.492Z,33.80
2023-04-18T07:11:46.217Z,37.10
2023-04-18T07:14:13.172Z,33.50
2023-04-18T07:16:40.570Z,34.60
2023-04-18T07:19:07.684Z,34.20
2023-04-18T07:21:34.838Z,31.80
2023-04-18T07:24:01.663Z,34.00
2023-04-18T07:26:28.985Z,33.70
2023-04-18T07:28:55.678Z,32.90
2023-04-18T07:31:25.213Z,34.20
2023-04-18T07:33:52.080Z,33.00
2023-04-18T07:36:18.740Z,33.10
2023-04-18T07:38:46.161Z,32.10
2023-04-18T07:41:13.090Z,32.60
2023-04-18T07:43:39.862Z,32.10
2023-04-18T07:46:07.203Z,32.00
2023-04-18T07:48:33.922Z,31.50
2023-04-18T07:51:00.691Z,32.20
2023-04-18T07:53:27.400Z,29.60
2023-04-18T07:55:54.937Z,31.40
2023-04-18T07:58:21.719Z,31.50
2023-04-18T08:00:48.436Z,31.00
2023-04-18T08:03:15.625Z,30.50
2023-04-18T08:05:42.798Z,31.10
2023-04-18T08:08:11.440Z,29.70
2023-04-18T08:10:38.492Z,29.90
2023-04-18T08:13:06.136Z,29.60
2023-04-18T08:15:33.131Z,29.50
2023-04-18T08:18:00.995Z,29.70
2023-04-18T08:20:28.050Z,29.90
2023-04-18T08:23:04.836Z,30.70
2023-04-18T08:25:35.496Z,28.70
2023-04-18T08:28:03.270Z,28.00
2023-04-18T08:30:30.003Z,27.80
2023-04-18T08:32:56.780Z,27.20
2023-04-18T08:35:23.556Z,28.20
2023-04-18T08:37:50.270Z,27.70
2023-04-18T08:40:18.128Z,27.20
2023-04-18T08:42:45.087Z,27.90
2023-04-18T08:45:13.712Z,26.00
2023-04-18T08:47:41.481Z,25.90
2023-04-18T08:50:10.168Z,27.50
2023-04-18T08:52:39.563Z,27.30
2023-04-18T08:55:08.841Z,26.50
2023-04-18T08:57:35.958Z,29.20
2023-04-18T09:00:08.756Z,28.20
2023-04-18T09:02:41.367Z,27.40
2023-04-18T09:05:14.020Z,27.00
2023-04-18T09:07:42.250Z,27.30
2023-04-18T09:10:10.633Z,26.40
2023-04-18T09:12:54.751Z,26.20
2023-04-18T09:15:23.571Z,25.40
2023-04-18T09:17:55.435Z,24.20
2023-04-18T09:20:37.320Z,22.90
2023-04-18T09:23:09.818Z,24.70
2023-04-18T09:25:48.099Z,23.60
2023-04-18T09:28:32.633Z,23.70
2023-04-18T09:31:12.323Z,24.30
2023-04-18T09:33:48.955Z,24.60
2023-04-18T09:36:22.892Z,23.40
2023-04-18T09:38:55.393Z,23.30
2023-04-18T09:41:23.740Z,23.00
2023-04-18T09:44:13.170Z,22.20
2023-04-18T09:46:44.470Z,20.40
2023-04-18T09:49:13.281Z,21.80
2023-04-18T09:51:43.108Z,22.30
2023-04-18T09:54:16.145Z,20.70
2023-04-18T09:56:49.981Z,21.70
2023-04-18T09:59:33.697Z,20.10
2023-04-18T10:02:03.015Z,21.40
2023-04-18T10:04:31.029Z,22.10
2023-04-18T10:06:58.435Z,21.40
2023-04-18T10:09:27.797Z,20.30
2023-04-18T10:11:56.283Z,19.40
2023-04-18T10:14:23.219Z,20.80
2023-04-18T10:16:50.725Z,19.80
2023-04-18T10:19:24.115Z,19.20
2023-04-18T10:21:56.520Z,19.20
2023-04-18T10:24:52.401Z,19.10
2023-04-18T10:27:48.289Z,16.70
2023-04-18T10:30:17.979Z,15.10
2023-04-18T10:32:48.248Z,14.90
2023-04-18T10:35:15.017Z,16.00
2023-04-18T10:37:52.009Z,15.20
2023-04-18T10:40:33.281Z,17.40
2023-04-18T10:43:00.419Z,14.90
2023-04-18T10:45:30.588Z,16.00
2023-04-18T10:48:29.588Z,14.90
2023-04-18T10:51:16.966Z,16.40
2023-04-18T10:53:51.325Z,14.30
2023-04-18T10:56:18.056Z,15.50
2023-04-18T10:58:50.973Z,14.20
2023-04-18T11:01:32.599Z,13.60
2023-04-18T11:04:00.672Z,15.50
2023-04-18T11:06:28.604Z,14.10
2023-04-18T11:09:12.832Z,14.80
2023-04-18T11:11:41.126Z,14.50
2023-04-18T11:14:08.149Z,13.70
2023-04-18T11:16:35.796Z,13.60
2023-04-18T11:19:21.212Z,13.80
2023-04-18T11:21:48.759Z,12.90
2023-04-18T11:24:23.507Z,13.80
2023-04-18T11:26:55.082Z,14.10
2023-04-18T11:29:22.161Z,14.90
2023-04-18T11:31:52.054Z,14.30
2023-04-18T11:34:19.340Z,14.80
2023-04-18T11:36:53.137Z,14.00
2023-04-18T11:39:19.900Z,14.70
2023-04-18T11:41:49.923Z,13.80
2023-04-18T11:44:25.023Z,14.20
2023-04-18T11:46:52.857Z,13.40
2023-04-18T11:49:31.381Z,15.20
2023-04-18T11:52:00.451Z,14.90
2023-04-18T11:54:45.468Z,15.30
2023-04-18T11:57:26.847Z,15.20
2023-04-18T11:59:57.224Z,14.00
2023-04-18T12:02:42.605Z,15.10
2023-04-18T12:05:11.322Z,15.80
2023-04-18T12:07:45.186Z,13.10
2023-04-18T12:10:20.997Z,12.30
2023-04-18T12:12:53.901Z,13.50
2023-04-18T12:15:27.613Z,12.10
2023-04-18T12:18:03.332Z,11.00
2023-04-18T12:20:46.050Z,10.80
2023-04-18T12:23:38.103Z,10.60
2023-04-18T12:26:14.654Z,10.30
2023-04-18T12:28:45.280Z,10.60
2023-04-18T12:31:12.293Z,10.00
2023-04-18T12:33:39.066Z,9.10
2023-04-18T12:36:10.578Z,10.00
2023-04-18T12:38:37.376Z,9.80
2023-04-18T12:41:05.049Z,9.90
2023-04-18T12:43:31.961Z,8.70
2023-04-18T12:45:59.280Z,7.60
2023-04-18T12:48:25.961Z,8.20
2023-04-18T12:50:52.799Z,8.00
2023-04-18T12:53:19.749Z,9.10
2023-04-18T12:55:46.509Z,7.50
2023-04-18T12:58:17.843Z,7.30
2023-04-18T13:00:45.426Z,6.80
2023-04-18T13:03:13.383Z,7.00
2023-04-18T13:05:40.704Z,7.10
2023-04-18T13:08:16.036Z,6.60
2023-04-18T13:10:46.754Z,7.00
2023-04-18T13:13:13.558Z,7.00
2023-04-18T13:15:40.773Z,7.90
2023-04-18T13:18:07.786Z,8.50
2023-04-18T13:20:35.894Z,7.30
2023-04-18T13:23:03.195Z,6.50
2023-04-18T13:25:30.269Z,6.00
2023-04-18T13:27:57.748Z,6.50
2023-04-18T13:30:24.470Z,5.60
2023-04-18T13:32:51.264Z,5.70
2023-04-18T13:35:18.138Z,5.90
2023-04-18T13:37:45.536Z,5.10
2023-04-18T13:40:12.780Z,5.70
2023-04-18T13:42:39.440Z,5.30
2023-04-18T13:45:07.132Z,5.30
2023-04-18T13:47:34.409Z,5.20
2023-04-18T13:50:01.367Z,5.10
2023-04-18T13:52:28.203Z,5.20
2023-04-18T13:54:55.084Z,5.90
2023-04-18T13:57:22.513Z,5.20
2023-04-18T13:59:49.261Z,5.10
2023-04-18T14:02:16.130Z,5.10
2023-04-18T14:04:43.217Z,5.40
2023-04-18T14:07:10.669Z,4.80
2023-04-18T14:09:37.479Z,5.00
2023-04-18T14:12:04.901Z,5.70
2023-04-18T14:14:31.701Z,5.30
2023-04-18T14:16:58.489Z,6.00
2023-04-18T14:19:26.958Z,5.10
2023-04-18T14:21:53.943Z,6.10
2023-04-18T14:24:20.770Z,6.10
2023-04-18T14:26:47.493Z,5.80
2023-04-18T14:29:14.506Z,5.20
2023-04-18T14:31:41.505Z,5.10
2023-04-18T14:34:09.146Z,5.60
2023-04-18T14:36:36.277Z,4.80
2023-04-18T14:39:03.142Z,5.10
2023-04-18T14:41:29.809Z,5.90
2023-04-18T14:43:56.481Z,4.80
2023-04-18T14:46:23.342Z,4.40
2023-04-18T14:48:50.400Z,5.80
2023-04-18T14:51:17.185Z,5.50
2023-04-18T14:53:44.232Z,5.70
2023-04-18T14:56:11.243Z,4.90
2023-04-18T14:58:37.940Z,5.30
2023-04-18T15:01:05.216Z,4.80
2023-04-18T15:03:32.556Z,5.10
2023-04-18T15:05:59.879Z,4.70
2023-04-18T15:08:27.116Z,4.50
2023-04-18T15:10:53.911Z,5.20
2023-04-18T15:13:20.597Z,5.40
2023-04-18T15:15:56.331Z,5.40
2023-04-18T15:18:23.352Z,5.60
2023-04-18T15:20:51.066Z,5.00
2023-04-18T15:23:17.980Z,5.30
2023-04-18T15:25:45.957Z,5.50
2023-04-18T15:28:13.298Z,4.90
2023-04-18T15:30:40.455Z,5.20
2023-04-18T15:33:07.839Z,4.80
2023-04-18T15:35:35.380Z,5.00
2023-04-18T15:38:02.510Z,4.70
2023-04-18T15:40:32.302Z,5.20
2023-04-18T15:42:59.020Z,4.40
2023-04-18T15:45:25.698Z,4.70
2023-04-18T15:47:52.424Z,5.10
2023-04-18T15:50:19.226Z,5.60
2023-04-18T15:52:46.103Z,5.10
2023-04-18T15:55:13.243Z,5.40
2023-04-18T15:57:41.014Z,5.10
2023-04-18T16:00:15.530Z,5.20
2023-04-18T16:02:46.255Z,5.20
2023-04-18T16:05:14.550Z,4.70
2023-04-18T16:07:42.625Z,5.20
2023-04-18T16:10:12.027Z,4.90
2023-04-18T16:12:39.549Z,5.00
2023-04-18T16:15:09.146Z,4.60
2023-04-18T16:17:37.456Z,5.50
2023-04-18T16:20:07.484Z,5.10
2023-04-18T16:22:34.363Z,4.90
2023-04-18T16:25:01.214Z,4.80
2023-04-18T16:27:27.957Z,5.00
2023-04-18T16:29:54.631Z,5.20
2023-04-18T16:32:21.362Z,4.70
2023-04-18T16:34:48.169Z,4.80
2023-04-18T16:37:15.379Z,5.50
2023-04-18T16:39:42.045Z,5.20
2023-04-18T16:42:08.665Z,5.70
2023-04-18T16:44:35.324Z,5.40
2023-04-18T16:47:04.406Z,5.00
2023-04-18T16:49:31.255Z,5.60
2023-04-18T16:51:57.927Z,5.50
2023-04-18T16:54:24.818Z,5.00
2023-04-18T16:56:51.642Z,5.50
2023-04-18T16:59:18.325Z,5.10
2023-04-18T17:01:45.045Z,5.10
2023-04-18T17:04:12.110Z,4.80
2023-04-18T17:06:41.488Z,5.50
2023-04-18T17:09:08.432Z,4.80
2023-04-18T17:11:39.423Z,5.20
2023-04-18T17:14:07.972Z,5.50
2023-04-18T17:16:38.012Z,5.00
2023-04-18T17:19:05.735Z,5.40
2023-04-18T17:21:36.648Z,5.10
2023-04-18T17:24:06.151Z,5.10
2023-04-18T17:26:36.284Z,5.60
2023-04-18T17:29:03.987Z,5.50
2023-04-18T17:31:31.448Z,5.50
2023-04-18T17:33:59.011Z,5.70
2023-04-18T17:36:25.745Z,5.60
2023-04-18T17:38:52.523Z,5.10
2023-04-18T17:41:20.946Z,4.80
2023-04-18T17:43:52.670Z,4.70
2023-04-18T17:46:19.384Z,5.50
2023-04-18T17:48:46.492Z,5.80
2023-04-18T17:51:15.571Z,5.40
2023-04-18T17:53:42.259Z,6.10
2023-04-18T17:56:09.442Z,6.10
2023-04-18T17:58:36.693Z,6.30
2023-04-18T18:01:03.517Z,6.60
2023-04-18T18:03:30.649Z,6.40
2023-04-18T18:05:57.758Z,6.90
2023-04-18T18:08:25.088Z,6.10
2023-04-18T18:10:51.816Z,5.50
2023-04-18T18:13:18.695Z,6.30
2023-04-18T18:15:45.714Z,5.80
2023-04-18T18:18:12.372Z,6.70
2023-04-18T18:20:42.674Z,6.40
2023-04-18T18:23:09.899Z,6.10
2023-04-18T18:25:37.116Z,6.00
2023-04-18T18:28:04.060Z,6.30
2023-04-18T18:30:30.738Z,5.90
2023-04-18T18:32:57.554Z,6.60
2023-04-18T18:35:24.428Z,5.90
2023-04-18T18:37:51.377Z,6.60
2023-04-18T18:40:18.258Z,7.10
2023-04-18T18:42:45.585Z,6.50
2023-04-18T18:45:12.316Z,7.30
2023-04-18T18:47:40.053Z,6.30
2023-04-18T18:50:08.006Z,7.40
2023-04-18T18:52:34.934Z,7.10
2023-04-18T18:55:02.758Z,6.60
2023-04-18T18:57:30.103Z,6.70
2023-04-18T18:59:56.960Z,6.70
2023-04-18T19:02:24.011Z,6.80
2023-04-18T19:04:51.034Z,6.70
2023-04-18T19:07:17.893Z,7.50
2023-04-18T19:09:45.776Z,7.60
2023-04-18T19:12:12.601Z,7.40
2023-04-18T19:14:40.704Z,7.70
2023-04-18T19:17:09.157Z,8.00
2023-04-18T19:19:36.122Z,8.90
2023-04-18T19:22:03.252Z,8.20
2023-04-18T19:24:31.240Z,8.50
2023-04-18T19:26:59.113Z,8.60
2023-04-18T19:29:26.083Z,9.10
2023-04-18T19:31:52.934Z,8.70
2023-04-18T19:34:21.254Z,8.90
2023-04-18T19:36:48.083Z,9.50
2023-04-18T19:39:15.860Z,9.40
2023-04-18T19:41:42.854Z,10.00
2023-04-18T19:44:09.507Z,10.20
2023-04-18T19:46:36.358Z,9.90
2023-04-18T19:49:03.162Z,9.80
2023-04-18T19:51:30.663Z,10.80
2023-04-18T19:53:57.394Z,10.40
2023-04-18T19:56:24.187Z,10.80
2023-04-18T19:58:51.109Z,10.50
2023-04-18T20:01:20.281Z,10.50
2023-04-18T20:03:47.767Z,10.90
2023-04-18T20:06:17.943Z,10.90
2023-04-18T20:08:45.628Z,10.50
2023-04-18T20:11:13.788Z,11.20
2023-04-18T20:13:40.898Z,11.00
2023-04-18T20:16:08.903Z,10.90
2023-04-18T20:18:40.922Z,10.80
2023-04-18T20:21:09.468Z,11.40
2023-04-18T20:23:36.915Z,11.10
2023-04-18T20:26:03.946Z,10.80
2023-04-18T20:28:31.205Z,10.80
2023-04-18T20:30:58.604Z,10.30
2023-04-18T20:33:25.492Z,10.30
2023-04-18T20:35:54.022Z,10.90
2023-04-18T20:38:25.801Z,11.10
2023-04-18T20:40:53.472Z,10.10
2023-04-18T20:43:22.253Z,11.40
2023-04-18T20:45:53.040Z,10.30
2023-04-18T20:48:20.801Z,10.40
2023-04-18T20:50:50.609Z,11.00
2023-04-18T20:53:21.969Z,11.30
2023-04-18T20:58:15.532Z,10.20
2023-04-18T21:00:43.977Z,11.80
2023-04-18T21:03:15.594Z,11.00
2023-04-18T21:05:44.173Z,10.90
2023-04-18T21:08:10.994Z,11.10
2023-04-18T21:10:37.789Z,11.20
2023-04-18T21:13:04.779Z,10.10
2023-04-18T21:15:31.634Z,11.10
2023-04-18T21:17:58.394Z,11.20
2023-04-18T21:20:25.311Z,10.50
2023-04-18T21:22:52.012Z,11.10
2023-04-18T21:25:20.542Z,11.60
2023-04-18T21:27:49.871Z,11.00
2023-04-18T21:30:16.776Z,11.40
2023-04-18T21:32:43.743Z,11.50
2023-04-18T21:35:10.975Z,11.50
2023-04-18T21:37:37.684Z,11.10
2023-04-18T21:40:05.786Z,11.30
2023-04-18T21:42:34.520Z,11.80
2023-04-18T21:45:01.822Z,11.40
2023-04-18T21:47:28.693Z,11.40
2023-04-18T21:49:55.496Z,10.90
2023-04-18T21:52:22.339Z,11.70
2023-04-18T21:54:49.064Z,12.20
2023-04-18T21:57:15.780Z,12.20
2023-04-18T21:59:42.463Z,11.60
2023-04-18T22:02:09.209Z,11.70
2023-04-18T22:04:37.472Z,11.10
2023-04-18T22:07:04.185Z,10.90
2023-04-18T22:09:33.218Z,11.90
2023-04-18T22:12:02.709Z,11.60
2023-04-18T22:14:33.370Z,12.80
2023-04-18T22:17:04.174Z,11.30
2023-04-18T22:19:30.950Z,12.80
2023-04-18T22:21:58.236Z,11.80
2023-04-18T22:24:27.855Z,11.40
2023-04-18T22:26:54.823Z,11.10
2023-04-18T22:29:21.510Z,11.60
2023-04-18T22:31:48.312Z,11.90
2023-04-18T22:34:15.393Z,11.50
2023-04-18T22:36:43.247Z,11.90
2023-04-18T22:39:11.489Z,11.90
2023-04-18T22:41:38.323Z,11.40
2023-04-18T22:44:05.375Z,12.40
2023-04-18T22:46:32.254Z,12.30
2023-04-18T22:48:59.081Z,10.90
2023-04-18T22:51:28.058Z,12.40
2023-04-18T22:53:55.589Z,11.60
2023-04-18T22:56:22.663Z,11.80
2023-04-18T22:58:49.399Z,12.70
2023-04-18T23:01:16.169Z,11.30
2023-04-18T23:03:43.127Z,11.90
2023-04-18T23:06:09.890Z,12.20
2023-04-18T23:08:36.545Z,11.90
2023-04-18T23:11:03.617Z,11.00
2023-04-18T23:13:30.358Z,11.70
2023-04-18T23:15:57.130Z,11.00
2023-04-18T23:18:23.823Z,11.90
2023-04-18T23:20:50.484Z,10.60
2023-04-18T23:23:17.139Z,11.00
2023-04-18T23:25:43.770Z,10.90
2023-04-18T23:28:10.417Z,11.10
2023-04-18T23:30:37.173Z,10.90
2023-04-18T23:33:04.535Z,10.30
2023-04-18T23:35:31.296Z,10.90
2023-04-18T23:37:58.260Z,10.30
2023-04-18T23:40:24.978Z,10.30
2023-04-18T23:42:51.663Z,11.20
2023-04-18T23:45:18.493Z,10.60
2023-04-18T23:47:45.200Z,11.00
2023-04-18T23:50:12.156Z,10.90
2023-04-18T23:52:39.011Z,11.30
2023-04-18T23:55:06.699Z,10.90
2023-04-18T23:57:33.363Z,11.00
